TimePDT,TemperatureF,Dew PointF,Humidity,Sea Level PressureIn,VisibilityMPH,Wind Direction,Wind SpeedMPH,Gust SpeedMPH,PrecipitationIn,Events,Conditions,WindDirDegrees,DateUTC
12:53 AM,45.0,37.0,74,29.79,10.0,South,23.0,-,0.00,,Mostly Cloudy,170,2013-03-20 07:53:00
1:53 AM,45.0,36.0,71,29.80,10.0,South,20.7,32.2,N/A,,Overcast,180,2013-03-20 08:53:00
2:53 AM,44.1,35.1,71,29.80,10.0,South,18.4,-,N/A,,Overcast,180,2013-03-20 09:53:00
3:53 AM,43.0,37.0,80,29.79,10.0,SSE,17.3,-,0.01,Rain,Light Rain,150,2013-03-20 10:53:00
4:53 AM,43.0,37.9,82,29.79,10.0,South,9.2,20.7,0.01,Rain,Light Rain,190,2013-03-20 11:53:00
5:03 AM,42.8,37.4,81,29.82,10.0,South,11.5,-,0.00,,Overcast,170,2013-03-20 12:03:00
5:24 AM,42.8,37.4,81,29.82,10.0,South,11.5,-,0.00,,Overcast,180,2013-03-20 12:24:00
5:53 AM,43.0,37.0,80,29.80,10.0,South,8.1,-,0.00,,Overcast,190,2013-03-20 12:53:00
6:03 AM,42.8,37.4,81,29.83,7.0,SSE,6.9,-,N/A,,Overcast,160,2013-03-20 13:03:00
6:53 AM,42.1,36.0,79,29.80,7.0,South,16.1,-,N/A,,Mostly Cloudy,170,2013-03-20 13:53:00
7:53 AM,42.8,35.6,76,29.80,10.0,South,15.0,-,N/A,,Mostly Cloudy,170,2013-03-20 14:53:00
8:53 AM,44.1,35.1,71,29.78,10.0,South,19.6,-,N/A,,Mostly Cloudy,170,2013-03-20 15:53:00
9:53 AM,46.0,35.1,66,29.78,10.0,South,19.6,-,N/A,,Mostly Cloudy,170,2013-03-20 16:53:00
10:53 AM,48.2,35.6,62,29.78,10.0,SW,13.8,25.3,N/A,,Mostly Cloudy,230,2013-03-20 17:53:00
11:10 AM,48.2,35.6,62,29.81,10.0,SW,20.7,25.3,0.00,Rain,Light Rain,220,2013-03-20 18:10:00
11:53 AM,48.9,36.0,61,29.78,10.0,SW,25.3,33.4,0.00,Rain,Light Rain,230,2013-03-20 18:53:00
12:49 PM,53.6,35.6,51,29.81,10.0,SW,26.5,33.4,0.00,,Mostly Cloudy,220,2013-03-20 19:49:00
12:53 PM,53.1,35.1,50,29.77,10.0,WSW,24.2,33.4,0.00,,Mostly Cloudy,240,2013-03-20 19:53:00
1:08 PM,53.6,35.6,51,29.82,10.0,WSW,26.5,34.5,0.00,Rain,Light Rain,240,2013-03-20 20:08:00
1:53 PM,48.0,41.0,77,29.80,10.0,West,24.2,32.2,0.01,Rain,Light Rain,280,2013-03-20 20:53:00
2:53 PM,46.9,41.0,80,29.82,10.0,West,19.6,26.5,0.01,Rain,Light Rain,260,2013-03-20 21:53:00
3:45 PM,44.6,39.2,81,29.86,10.0,West,25.3,36.8,0.05,,Mostly Cloudy,270,2013-03-20 22:45:00
3:53 PM,46.0,39.0,76,29.84,10.0,West,20.7,33.4,0.05,,Mostly Cloudy,280,2013-03-20 22:53:00
4:53 PM,44.6,35.6,71,29.87,10.0,West,27.6,38.0,N/A,,Mostly Cloudy,270,2013-03-20 23:53:00
5:53 PM,44.1,33.1,65,29.88,10.0,West,13.8,24.2,N/A,,Mostly Cloudy,280,2013-03-21 00:53:00
6:53 PM,41.0,32.0,70,29.94,10.0,NNW,13.8,25.3,N/A,,Mostly Cloudy,330,2013-03-21 01:53:00
7:53 PM,37.0,28.9,73,29.99,10.0,WNW,12.7,20.7,N/A,,Mostly Cloudy,290,2013-03-21 02:53:00
8:53 PM,34.0,26.1,73,30.01,10.0,WNW,19.6,25.3,N/A,,Scattered Clouds,300,2013-03-21 03:53:00
9:53 PM,32.0,21.9,66,30.02,10.0,WNW,18.4,24.2,N/A,,Partly Cloudy,290,2013-03-21 04:53:00
11:53 PM,30.9,21.9,69,30.09,10.0,WNW,15.0,-,N/A,,Mostly Cloudy,290,2013-03-21 06:53:00